SNOW

Not for real navigation. The accuracy of this data is not assured See disclaimer for more information



ICAO NAME COUNTRY WIND Kt GUST Kt VIS m TEMP/DEW C BARO METAR
LYUZ 9 0 100 0/0 30.09 LYUZ 230930Z 32009KT 0100 -SN FZFG VV001 M00/M00 Q1019 R10///////
KMWN Mount Washington NH United States 40 0 200 -6/-6 29.92 KMWN 230854Z 32040KT 0.125SM FZFG BKN000 M06/M06 RMK SHSNE30 FZFG BKN000 VRY LGT ICG
PPIZ Point Lay, Point Lay LRRS Airp AK United States 3 0 400 -11/-12 30.18 PPIZ 230910Z AUTO 12003KT 0.25SM -SN FZFG OVC002 M11/M12 A3018 RMK AO2 P0000 FZRANO TS
PABA Barter Island, Barter Island L AK United States 0 0 800 -13/-16 30.18 PABA 230858Z AUTO 00000KT 0.5SM -SN FZFG OVC002 M13/M16 A3018 RMK AO2 P0000 FZRANO TS
CYGL La Grande Riviere, Que Canada 3 0 1200 -1/-1 29.63 CYGL 230900Z 31003KT 300V360 0.75SM -SN VV004 M01/M01 A2963 RMK SN8 /S02/ SLP045

Show more